Time;durP1;ratioP1;P1;durP2;ratioP2;P2;SDS_P1;SDS_P2;PMS_P1;PMS_P2;Temp;Humidity;BMP_temperature;BMP_pressure;BME280_temperature;BME280_humidity;BME280_pressure;Samples;Min_cycle;Max_cycle;Signal;HPM_P1;HPM_P2
2022/11/27 00:02:23;;;;;;;5.97;4.50;;;;;;;4.90;53.62;96083.53;4934297;29;20204;-61
2022/11/27 00:04:50;;;;;;;9.52;5.90;;;;;;;4.91;53.16;96087.72;4947561;28;20203;-59
2022/11/27 00:07:16;;;;;;;8.40;6.47;;;;;;;4.71;53.76;96084.19;4946205;28;20727;-60
2022/11/27 00:09:43;;;;;;;11.13;6.82;;;;;;;4.82;54.06;96091.47;4936099;28;20197;-59
2022/11/27 00:12:10;;;;;;;4.30;3.90;;;;;;;4.88;54.01;96093.31;4934490;29;20211;-62
2022/11/27 00:14:37;;;;;;;6.40;5.15;;;;;;;4.77;53.99;96104.22;4934406;29;20229;-58
2022/11/27 00:17:04;;;;;;;6.90;5.22;;;;;;;4.83;54.08;96093.06;4943953;29;20627;-58
2022/11/27 00:19:32;;;;;;;7.10;5.35;;;;;;;4.91;53.64;96090.31;4941272;28;20230;-61
2022/11/27 00:21:59;;;;;;;6.60;5.10;;;;;;;4.65;54.64;96087.53;4934798;29;20706;-59
2022/11/27 00:24:25;;;;;;;3.88;2.15;;;;;;;4.63;54.75;96092.16;4947432;29;20203;-60
2022/11/27 00:26:52;;;;;;;5.82;2.85;;;;;;;4.94;54.42;96094.34;4953287;28;20234;-59
2022/11/27 00:29:20;;;;;;;5.22;3.90;;;;;;;4.94;54.15;96095.16;4941441;28;20211;-59
2022/11/27 00:31:47;;;;;;;1.30;1.20;;;;;;;4.79;54.21;96097.03;4933824;29;20193;-62
2022/11/27 00:34:14;;;;;;;7.63;5.65;;;;;;;4.79;54.49;96104.03;4944073;29;20192;-58
2022/11/27 00:36:41;;;;;;;11.25;7.88;;;;;;;4.76;54.62;96105.19;4950630;28;20641;-58
2022/11/27 00:39:13;;;;;;;9.43;5.20;;;;;;;4.74;54.75;96115.00;4941546;28;20210;-59
2022/11/27 00:41:40;;;;;;;3.55;3.20;;;;;;;4.83;54.77;96107.84;4951448;28;20196;-59
2022/11/27 00:44:07;;;;;;;6.10;5.18;;;;;;;4.89;54.38;96112.28;4934295;29;20635;-61
2022/11/27 00:46:34;;;;;;;3.95;3.65;;;;;;;4.66;54.96;96099.53;4933425;29;20987;-58
2022/11/27 00:49:04;;;;;;;10.15;7.53;;;;;;;4.81;54.82;96108.03;4939775;28;20238;-59
2022/11/27 00:51:32;;;;;;;10.13;7.95;;;;;;;4.60;55.72;96108.09;4940367;28;20579;-61
2022/11/27 00:53:59;;;;;;;4.60;3.67;;;;;;;4.50;56.03;96101.63;4934494;29;20318;-58
2022/11/27 00:56:32;;;;;;;10.40;5.55;;;;;;;4.76;55.45;96107.78;4953158;28;20715;-62
2022/11/27 00:59:00;;;;;;;3.67;3.40;;;;;;;4.65;55.69;96110.91;4939338;28;20240;-62
2022/11/27 01:01:37;;;;;;;4.03;3.05;;;;;;;4.79;55.64;96112.63;4939602;28;20224;-58
2022/11/27 01:04:07;;;;;;;4.05;3.75;;;;;;;4.81;55.50;96110.66;4952695;28;20202;-59
2022/11/27 01:06:34;;;;;;;3.35;2.65;;;;;;;5.01;55.34;96106.38;4939136;29;20318;-59
2022/11/27 01:09:02;;;;;;;7.30;5.05;;;;;;;5.18;54.89;96105.03;4952658;28;20667;-59
2022/11/27 01:11:30;;;;;;;4.65;3.53;;;;;;;4.81;56.09;96104.63;4947738;28;20200;-58
2022/11/27 01:14:00;;;;;;;9.45;5.30;;;;;;;4.80;56.24;96101.22;4944340;28;20664;-59
2022/11/27 01:16:28;;;;;;;2.47;2.30;;;;;;;4.97;56.16;96089.56;4938853;28;20612;-60
2022/11/27 01:18:57;;;;;;;1.70;1.50;;;;;;;4.89;56.20;96081.13;4952241;28;20243;-59
2022/11/27 01:21:27;;;;;;;4.75;4.07;;;;;;;4.85;56.69;96083.28;4949398;29;20218;-59
2022/11/27 01:23:54;;;;;;;4.22;3.72;;;;;;;5.00;56.75;96093.56;4933449;29;20197;-60
2022/11/27 01:26:21;;;;;;;11.32;4.22;;;;;;;5.24;55.96;96084.50;4947782;29;20314;-59
2022/11/27 01:28:53;;;;;;;0.75;0.73;;;;;;;5.24;56.30;96084.50;4945069;28;20643;-60
2022/11/27 01:31:26;;;;;;;5.35;3.78;;;;;;;5.35;55.54;96076.13;4933355;29;20224;-59
2022/11/27 01:33:57;;;;;;;4.47;2.78;;;;;;;5.49;55.53;96078.59;4940339;29;20206;-61
2022/11/27 01:36:24;;;;;;;3.25;2.72;;;;;;;5.55;55.16;96084.81;4938427;28;20264;-60
2022/11/27 01:38:51;;;;;;;2.85;2.58;;;;;;;5.47;54.83;96085.81;4946183;28;20192;-60
2022/11/27 01:41:40;;;;;;;3.75;2.70;;;;;;;5.32;54.65;96081.72;4932997;28;20212;-60
2022/11/27 01:44:25;;;;;;;11.25;4.72;;;;;;;5.34;55.25;96082.34;4940732;29;20323;-61
2022/11/27 01:47:04;;;;;;;5.75;3.60;;;;;;;5.31;54.41;96074.94;4951394;29;20235;-60
2022/11/27 01:49:36;;;;;;;1.10;1.10;;;;;;;5.29;54.67;96079.53;4952318;28;20259;-60
2022/11/27 01:52:10;;;;;;;14.82;6.15;;;;;;;5.40;54.92;96068.56;4937107;28;20197;-60
2022/11/27 01:54:37;;;;;;;6.53;3.05;;;;;;;5.35;54.97;96076.13;4932642;29;20655;-62
2022/11/27 01:57:12;;;;;;;7.55;5.22;;;;;;;5.14;55.32;96057.09;4944292;29;20200;-59
2022/11/27 01:59:40;;;;;;;9.52;4.97;;;;;;;5.28;54.68;96070.09;4946367;28;20623;-61
2022/11/27 02:02:07;;;;;;;3.75;3.20;;;;;;;5.02;55.16;96076.78;4932257;29;20201;-61
2022/11/27 02:04:34;;;;;;;5.55;2.55;;;;;;;5.12;55.33;96066.88;4936466;29;20208;-62
2022/11/27 02:07:01;;;;;;;3.80;3.00;;;;;;;5.40;54.59;96073.78;4951674;28;20597;-62
2022/11/27 02:09:28;;;;;;;5.30;2.25;;;;;;;5.27;54.65;96073.72;4936148;28;20291;-62
2022/11/27 02:12:26;;;;;;;2.70;2.50;;;;;;;5.42;54.54;96074.38;4940895;29;20238;-61
2022/11/27 02:15:12;;;;;;;5.18;4.25;;;;;;;5.29;54.59;96072.53;4958044;28;20207;-61
2022/11/27 02:18:02;;;;;;;8.48;3.17;;;;;;;5.37;55.19;96068.94;4937319;28;20211;-61
2022/11/27 02:20:42;;;;;;;1.10;1.00;;;;;;;5.32;54.60;96076.53;4932545;29;20232;-56
2022/11/27 02:23:46;;;;;;;3.50;1.85;;;;;;;5.31;55.06;96069.75;4934850;29;20279;-57
2022/11/27 02:26:40;;;;;;;5.15;3.33;;;;;;;5.47;54.96;96077.19;4937145;29;20220;-59
2022/11/27 02:29:12;;;;;;;9.13;4.30;;;;;;;5.50;54.38;96075.00;4932540;29;20295;-57
2022/11/27 02:31:45;;;;;;;1.95;1.85;;;;;;;5.20;54.35;96078.88;4931811;29;20208;-59
2022/11/27 02:34:35;;;;;;;1.05;1.05;;;;;;;5.03;55.54;96083.59;4941714;28;20350;-61
2022/11/27 02:37:23;;;;;;;1.30;1.25;;;;;;;4.98;55.85;96088.56;4932241;28;20692;-60
2022/11/27 02:40:27;;;;;;;1.38;1.27;;;;;;;5.21;55.31;96083.09;4945959;29;20204;-59
2022/11/27 02:43:08;;;;;;;0.68;0.68;;;;;;;5.13;56.02;96086.63;4949267;28;20353;-61
2022/11/27 02:45:42;;;;;;;1.27;1.25;;;;;;;5.24;55.37;96077.50;4931572;29;20204;-58
2022/11/27 02:48:12;;;;;;;1.67;1.55;;;;;;;5.26;55.45;96077.28;4944256;29;20212;-57
2022/11/27 02:50:43;;;;;;;0.55;0.55;;;;;;;5.56;54.51;96078.63;4947144;28;20297;-60
2022/11/27 02:53:18;;;;;;;9.13;5.53;;;;;;;5.69;54.55;96084.66;4939933;29;20667;-60
2022/11/27 02:55:47;;;;;;;4.43;3.53;;;;;;;5.72;54.86;96078.25;4936075;28;20204;-62
2022/11/27 02:58:18;;;;;;;3.78;3.42;;;;;;;5.61;54.79;96071.03;4932031;29;20665;-60
2022/11/27 03:00:46;;;;;;;1.95;1.70;;;;;;;5.63;54.62;96082.03;4931655;29;20224;-60
2022/11/27 03:03:17;;;;;;;0.85;0.82;;;;;;;5.68;54.87;96077.03;4938766;29;20247;-57
2022/11/27 03:05:48;;;;;;;2.47;2.05;;;;;;;5.36;55.45;96077.75;4937888;28;20212;-61
2022/11/27 03:08:31;;;;;;;2.70;2.05;;;;;;;5.64;54.63;96078.47;4951089;28;20219;-59
2022/11/27 03:11:05;;;;;;;0.50;0.50;;;;;;;5.52;55.43;96086.00;4937591;28;20231;-59
2022/11/27 03:13:37;;;;;;;1.52;1.42;;;;;;;5.58;55.00;96084.44;4943688;28;20201;-59
2022/11/27 03:16:11;;;;;;;0.80;0.77;;;;;;;5.54;55.82;96085.81;4932408;29;20276;-58
2022/11/27 03:18:53;;;;;;;3.03;2.42;;;;;;;5.54;55.42;96085.81;4943441;28;20235;-61
2022/11/27 03:21:41;;;;;;;6.85;2.63;;;;;;;5.66;55.11;96084.25;4931667;29;20221;-61
2022/11/27 03:24:09;;;;;;;0.82;0.82;;;;;;;5.27;56.04;96089.31;4943704;29;20204;-60
2022/11/27 03:26:37;;;;;;;1.08;0.90;;;;;;;4.72;57.95;96095.41;4948064;28;20825;-59
2022/11/27 03:29:08;;;;;;;4.50;3.67;;;;;;;4.82;57.91;96090.66;4942184;28;20203;-61
2022/11/27 03:31:36;;;;;;;1.50;1.30;;;;;;;5.20;57.03;96098.88;4954586;28;20208;-59
2022/11/27 03:34:04;;;;;;;2.95;2.33;;;;;;;5.33;56.70;96093.75;4946054;28;20694;-60
2022/11/27 03:36:31;;;;;;;3.88;2.63;;;;;;;5.37;56.15;96079.34;4935857;29;20204;-62
2022/11/27 03:38:57;;;;;;;1.20;1.02;;;;;;;5.41;56.73;96083.16;4947602;28;20316;-58
2022/11/27 03:41:39;;;;;;;0.88;0.88;;;;;;;5.41;56.94;96080.56;4947419;29;20254;-58
2022/11/27 03:44:39;;;;;;;1.13;1.13;;;;;;;5.01;58.56;96087.38;4954102;28;20208;-61
2022/11/27 03:47:25;;;;;;;1.73;1.33;;;;;;;5.17;58.04;96081.84;4940266;28;20235;-58
2022/11/27 03:50:13;;;;;;;0.50;0.50;;;;;;;5.10;58.50;96087.03;4954105;28;20210;-59
2022/11/27 03:52:58;;;;;;;1.17;0.85;;;;;;;5.28;58.28;96083.91;4934418;29;20201;-59
2022/11/27 03:55:48;;;;;;;8.57;2.05;;;;;;;5.02;59.24;96081.19;4946609;29;20206;-59
2022/11/27 03:58:27;;;;;;;0.63;0.63;;;;;;;4.78;59.96;96079.84;4942204;29;20211;-62
2022/11/27 04:00:57;;;;;;;1.10;1.10;;;;;;;5.05;59.28;96084.19;4953602;28;20222;-63
2022/11/27 04:03:29;;;;;;;1.95;1.08;;;;;;;5.22;58.78;96092.47;4954012;28;20200;-60
2022/11/27 04:05:56;;;;;;;1.95;1.55;;;;;;;5.29;58.60;96082.13;4953683;28;20298;-61
2022/11/27 04:08:23;;;;;;;1.25;1.15;;;;;;;5.44;57.80;96062.00;4946294;28;20283;-59
2022/11/27 04:10:50;;;;;;;8.18;1.55;;;;;;;4.82;59.92;96078.47;4948149;28;20212;-62
2022/11/27 04:13:17;;;;;;;1.42;1.30;;;;;;;4.80;59.92;96083.06;4940240;28;20617;-59
2022/11/27 04:15:44;;;;;;;1.42;1.33;;;;;;;4.62;59.87;96063.75;4954381;28;20196;-61
2022/11/27 04:18:11;;;;;;;0.82;0.82;;;;;;;4.98;59.27;96070.38;4950510;28;20196;-59
2022/11/27 04:20:38;;;;;;;4.40;1.30;;;;;;;4.73;60.00;96071.81;4945257;29;20659;-60
2022/11/27 04:23:05;;;;;;;2.05;1.52;;;;;;;4.76;59.66;96071.44;4937674;28;20580;-61
2022/11/27 04:25:31;;;;;;;3.22;1.23;;;;;;;4.80;59.64;96067.47;4942541;28;20604;-59
2022/11/27 04:27:58;;;;;;;0.98;0.95;;;;;;;4.51;60.70;96078.06;4939606;28;20252;-58
2022/11/27 04:30:25;;;;;;;10.40;2.65;;;;;;;4.69;59.95;96068.00;4953303;28;20303;-57
2022/11/27 04:32:52;;;;;;;0.30;0.30;;;;;;;4.97;59.57;96067.97;4940753;29;20556;-58
2022/11/27 04:35:19;;;;;;;7.40;3.10;;;;;;;4.87;59.36;96068.31;4947607;28;20287;-59
2022/11/27 04:37:46;;;;;;;1.65;1.55;;;;;;;4.91;59.07;96069.53;4945191;28;20212;-59
2022/11/27 04:40:13;;;;;;;0.63;0.63;;;;;;;4.53;59.94;96072.69;4953175;28;20227;-59
2022/11/27 04:42:39;;;;;;;0.20;0.20;;;;;;;4.26;60.94;96084.66;4944230;28;20204;-59
2022/11/27 04:45:08;;;;;;;2.22;1.67;;;;;;;4.54;60.29;96093.28;4934454;29;20531;-61
2022/11/27 04:47:34;;;;;;;0.95;0.75;;;;;;;4.41;60.79;96092.38;4941648;28;20236;-60
2022/11/27 04:50:02;;;;;;;0.93;0.40;;;;;;;4.36;61.49;96092.13;4939374;28;20213;-58
2022/11/27 04:52:29;;;;;;;0.25;0.25;;;;;;;4.18;61.47;96087.38;4936639;28;20203;-59
2022/11/27 04:54:56;;;;;;;4.45;1.55;;;;;;;4.67;60.58;96093.34;4952920;28;20208;-59
2022/11/27 04:57:27;;;;;;;0.25;0.25;;;;;;;4.77;60.04;96090.44;4951577;28;20210;-59
2022/11/27 04:59:53;;;;;;;0.52;0.50;;;;;;;4.85;59.88;96098.84;4941349;28;20195;-58
2022/11/27 05:02:20;;;;;;;0.30;0.30;;;;;;;4.78;60.12;96095.41;4939695;28;20228;-59
2022/11/27 05:04:47;;;;;;;0.20;0.20;;;;;;;5.02;59.01;96082.00;4946874;28;20201;-60
2022/11/27 05:07:14;;;;;;;0.50;0.50;;;;;;;4.72;59.91;96085.81;4944976;29;20282;-61
2022/11/27 05:09:41;;;;;;;0.10;0.10;;;;;;;4.36;60.96;96085.13;4947193;29;20567;-60
2022/11/27 05:12:07;;;;;;;0.55;0.55;;;;;;;4.57;60.99;96087.69;4943282;29;20298;-60
2022/11/27 05:14:34;;;;;;;4.47;2.03;;;;;;;4.55;60.51;96083.69;4939219;28;20210;-60
2022/11/27 05:17:01;;;;;;;0.60;0.60;;;;;;;4.75;59.97;96095.81;4944487;28;20201;-59
2022/11/27 05:19:29;;;;;;;1.27;1.17;;;;;;;4.71;59.75;96094.59;4946762;28;20227;-59
2022/11/27 05:21:56;;;;;;;0.68;0.68;;;;;;;4.81;59.83;96095.06;4939811;29;20219;-59
2022/11/27 05:24:25;;;;;;;1.58;1.05;;;;;;;4.76;59.87;96094.81;4952287;28;20208;-60
2022/11/27 05:26:52;;;;;;;0.38;0.38;;;;;;;4.84;59.83;96094.66;4952175;28;20198;-58
2022/11/27 05:29:20;;;;;;;0.10;0.10;;;;;;;5.10;59.18;96102.63;4940976;28;20296;-61
2022/11/27 05:31:47;;;;;;;0.10;0.10;;;;;;;5.21;58.80;96100.47;4946872;28;20243;-60
2022/11/27 05:34:14;;;;;;;0.60;0.60;;;;;;;4.93;59.34;96103.91;4942939;29;20188;-59
2022/11/27 05:36:41;;;;;;;1.10;0.95;;;;;;;4.87;59.70;96099.47;4951587;28;20188;-59
2022/11/27 05:39:09;;;;;;;1.10;1.00;;;;;;;4.64;60.54;96122.28;4952129;28;20208;-61
2022/11/27 05:41:37;;;;;;;1.88;1.05;;;;;;;4.82;61.07;96101.84;4951859;28;20310;-61
2022/11/27 05:44:05;;;;;;;2.15;1.67;;;;;;;4.91;61.98;96108.50;4952087;28;20204;-57
2022/11/27 05:46:31;;;;;;;0.57;0.57;;;;;;;5.11;61.11;96111.19;4951958;29;20240;-58
2022/11/27 05:48:59;;;;;;;6.85;3.55;;;;;;;5.21;59.55;96113.44;4932706;29;20296;-60
2022/11/27 05:51:25;;;;;;;8.20;5.80;;;;;;;5.34;59.54;96121.31;4934249;29;20303;-58
2022/11/27 05:53:52;;;;;;;4.40;4.00;;;;;;;5.39;58.67;96109.34;4943508;29;20287;-59
2022/11/27 05:56:19;;;;;;;2.80;2.60;;;;;;;5.39;58.78;96114.53;4935094;29;20227;-63
2022/11/27 05:58:47;;;;;;;2.97;2.75;;;;;;;5.25;59.07;96110.28;4931985;29;20192;-60
2022/11/27 06:01:15;;;;;;;7.03;4.90;;;;;;;5.41;58.85;96106.56;4932970;29;21591;-60
2022/11/27 06:03:43;;;;;;;2.53;2.33;;;;;;;5.21;58.37;96110.84;4946144;28;20199;-61
2022/11/27 06:06:18;;;;;;;3.22;1.13;;;;;;;5.39;57.61;96119.75;4938521;29;20194;-59
2022/11/27 06:08:46;;;;;;;7.55;4.07;;;;;;;5.29;57.72;96123.69;4938527;28;20915;-58
2022/11/27 06:11:19;;;;;;;3.45;1.80;;;;;;;5.26;57.91;96131.88;4938210;29;20200;-59
2022/11/27 06:13:47;;;;;;;1.38;1.27;;;;;;;5.28;57.89;96122.09;4939415;28;20213;-58
2022/11/27 06:16:17;;;;;;;5.55;4.72;;;;;;;5.22;57.47;96117.69;4950961;28;20651;-58
2022/11/27 06:18:44;;;;;;;1.52;1.42;;;;;;;5.18;56.95;96125.84;4945044;28;20259;-61
2022/11/27 06:21:13;;;;;;;1.35;1.25;;;;;;;4.75;57.19;96129.56;4939293;28;20311;-63
2022/11/27 06:23:41;;;;;;;4.50;3.70;;;;;;;4.91;57.20;96131.88;4931654;29;20192;-59
2022/11/27 06:26:12;;;;;;;12.40;4.22;;;;;;;4.94;56.89;96141.91;4942059;28;20254;-63
2022/11/27 06:28:39;;;;;;;3.40;3.10;;;;;;;4.95;56.96;96133.09;4937176;28;20590;-54
2022/11/27 06:31:15;;;;;;;6.03;2.58;;;;;;;5.14;56.62;96122.03;4948659;28;20200;-60
2022/11/27 06:33:45;;;;;;;0.47;0.47;;;;;;;5.26;56.43;96124.06;4937721;28;20286;-59
2022/11/27 06:36:12;;;;;;;2.05;1.23;;;;;;;5.41;56.14;96122.97;4951289;28;20605;-61
2022/11/27 06:38:39;;;;;;;0.60;0.60;;;;;;;5.29;55.85;96126.31;4948243;28;20655;-57
2022/11/27 06:41:17;;;;;;;3.22;2.40;;;;;;;5.22;56.68;96133.25;4939880;28;20220;-56
2022/11/27 06:43:44;;;;;;;2.42;2.15;;;;;;;5.15;56.81;96118.44;4937432;28;20204;-59
2022/11/27 06:46:16;;;;;;;4.78;3.40;;;;;;;5.29;56.81;96134.91;4950829;28;20237;-60
2022/11/27 06:48:45;;;;;;;1.50;1.35;;;;;;;5.39;56.69;96134.53;4937306;28;20210;-60
2022/11/27 06:51:16;;;;;;;2.30;2.13;;;;;;;5.25;56.71;96133.69;4942836;28;20224;-60
2022/11/27 06:53:43;;;;;;;2.08;1.92;;;;;;;4.81;57.18;96136.59;4931554;29;20579;-61
2022/11/27 06:56:28;;;;;;;5.07;2.03;;;;;;;5.00;57.42;96129.91;4944568;28;20212;-61
2022/11/27 06:58:59;;;;;;;2.83;2.63;;;;;;;5.21;56.91;96131.63;4944460;28;20235;-59
2022/11/27 07:01:30;;;;;;;9.27;3.70;;;;;;;5.33;56.84;96132.72;4941737;28;20235;-60
2022/11/27 07:03:57;;;;;;;1.88;1.45;;;;;;;5.24;57.07;96131.28;4939274;28;20201;-63
2022/11/27 07:06:25;;;;;;;2.35;2.17;;;;;;;5.45;56.50;96131.16;4953505;28;20204;-59
2022/11/27 07:08:53;;;;;;;1.67;1.55;;;;;;;5.45;56.69;96133.78;4943325;28;20215;-61
2022/11/27 07:11:23;;;;;;;2.30;1.92;;;;;;;5.30;56.90;96126.09;4952254;28;20224;-57
2022/11/27 07:13:51;;;;;;;1.27;1.17;;;;;;;5.28;56.63;96122.91;4954292;28;20196;-61
2022/11/27 07:16:17;;;;;;;4.18;3.17;;;;;;;5.29;56.98;96127.09;4954010;28;20620;-61
2022/11/27 07:18:47;;;;;;;4.18;2.75;;;;;;;5.57;57.98;96119.22;4945756;28;20196;-61
2022/11/27 07:21:15;;;;;;;2.97;2.28;;;;;;;5.47;57.50;96113.59;4948752;28;20247;-63
2022/11/27 07:23:41;;;;;;;3.05;2.05;;;;;;;5.68;56.83;96119.47;4934433;29;20200;-61
2022/11/27 07:26:14;;;;;;;3.72;1.23;;;;;;;5.89;56.69;96108.94;4942187;28;20731;-59
2022/11/27 07:28:42;;;;;;;1.95;1.85;;;;;;;5.60;56.09;96121.44;4954052;28;20735;-62
2022/11/27 07:31:14;;;;;;;1.67;1.45;;;;;;;5.73;57.31;96121.50;4954291;28;20196;-59
2022/11/27 07:33:41;;;;;;;0.82;0.82;;;;;;;5.76;56.88;96114.09;4941506;28;20599;-59
2022/11/27 07:36:20;;;;;;;2.53;2.33;;;;;;;5.09;57.17;96124.38;4952723;28;20644;-62
2022/11/27 07:38:47;;;;;;;3.40;2.28;;;;;;;5.47;57.20;96111.78;4954006;28;20199;-56
2022/11/27 07:41:15;;;;;;;1.17;1.17;;;;;;;5.78;56.92;96113.91;4934962;28;20247;-65
2022/11/27 07:43:43;;;;;;;2.65;1.90;;;;;;;5.40;56.99;96115.34;4946335;29;20267;-60
2022/11/27 07:46:19;;;;;;;0.60;0.60;;;;;;;4.73;58.59;96123.75;4940650;28;20323;-61
2022/11/27 07:48:46;;;;;;;4.88;2.67;;;;;;;5.02;57.78;96113.16;4942497;28;20240;-58
2022/11/27 07:51:16;;;;;;;0.50;0.50;;;;;;;5.00;59.09;96128.13;4948536;28;20723;-57
2022/11/27 07:53:43;;;;;;;1.42;1.35;;;;;;;5.37;58.05;96119.13;4953728;28;20215;-61
2022/11/27 07:56:12;;;;;;;5.78;3.53;;;;;;;5.55;57.75;96119.41;4953763;28;20208;-60
2022/11/27 07:58:39;;;;;;;4.63;2.40;;;;;;;5.74;56.87;96094.47;4942829;28;20271;-62
2022/11/27 08:01:08;;;;;;;6.28;1.83;;;;;;;5.95;57.02;96112.56;4947567;28;20600;-60
2022/11/27 08:03:35;;;;;;;2.70;2.42;;;;;;;6.12;56.28;96100.78;4934124;29;20192;-62
2022/11/27 08:06:03;;;;;;;1.50;1.40;;;;;;;5.90;56.70;96102.75;4936910;28;20223;-57
2022/11/27 08:08:31;;;;;;;0.90;0.77;;;;;;;5.93;57.67;96111.97;4944118;28;20683;-58
2022/11/27 08:10:58;;;;;;;4.28;2.92;;;;;;;5.93;57.36;96109.38;4947102;28;20226;-62
2022/11/27 08:13:24;;;;;;;1.23;1.23;;;;;;;5.97;57.71;96115.75;4933562;29;20633;-59
2022/11/27 08:15:51;;;;;;;7.85;3.95;;;;;;;5.91;57.38;96108.75;4934136;28;20316;-61
2022/11/27 08:18:18;;;;;;;3.60;3.30;;;;;;;5.81;57.97;96109.09;4965857;28;20302;-57
2022/11/27 08:20:45;;;;;;;4.00;3.20;;;;;;;6.02;57.13;96108.19;4953231;28;20218;-59
2022/11/27 08:23:12;;;;;;;3.08;2.85;;;;;;;5.99;56.83;96113.78;4948290;28;20720;-61
2022/11/27 08:25:39;;;;;;;7.18;6.47;;;;;;;6.12;57.17;96116.41;4944884;29;20200;-62
2022/11/27 08:28:05;;;;;;;3.33;3.10;;;;;;;6.19;57.04;96106.78;4953066;28;20190;-58
2022/11/27 08:30:32;;;;;;;9.00;6.32;;;;;;;6.32;56.72;96111.22;4943992;28;20219;-58
2022/11/27 08:32:59;;;;;;;4.88;3.50;;;;;;;6.46;56.27;96103.22;4950737;28;20203;-64
2022/11/27 08:35:26;;;;;;;3.10;2.88;;;;;;;5.85;57.57;96107.75;4945294;28;20200;-57
2022/11/27 08:37:53;;;;;;;5.55;2.65;;;;;;;6.19;56.93;96112.00;4948989;28;20598;-57
2022/11/27 08:40:20;;;;;;;1.33;1.25;;;;;;;6.23;57.46;96097.59;4952422;29;20188;-61
2022/11/27 08:42:47;;;;;;;11.45;7.65;;;;;;;6.21;57.61;96098.78;4940704;28;20319;-60
2022/11/27 08:45:14;;;;;;;2.70;1.60;;;;;;;6.12;56.57;96095.59;4933813;29;20213;-60
2022/11/27 08:47:42;;;;;;;3.38;2.80;;;;;;;6.26;57.04;96092.00;4935167;28;20323;-61
2022/11/27 08:50:09;;;;;;;2.33;2.10;;;;;;;6.41;57.04;96095.19;4938165;29;20234;-60
2022/11/27 08:52:36;;;;;;;3.50;3.20;;;;;;;6.33;57.28;96092.81;4942972;28;20699;-60
2022/11/27 08:55:03;;;;;;;4.28;3.22;;;;;;;6.43;56.63;96095.81;4933614;29;20528;-60
2022/11/27 08:57:30;;;;;;;0.98;0.88;;;;;;;6.32;56.73;96090.38;4948447;28;20200;-63
2022/11/27 08:59:57;;;;;;;2.13;1.55;;;;;;;6.05;57.84;96084.38;4943465;28;20688;-60
2022/11/27 09:02:24;;;;;;;15.05;7.30;;;;;;;6.24;57.99;96083.56;4943551;28;20316;-60
2022/11/27 09:04:50;;;;;;;5.43;3.38;;;;;;;6.57;58.19;96081.00;4952492;28;20803;-60
2022/11/27 09:07:17;;;;;;;3.45;3.13;;;;;;;6.76;56.83;96080.16;4952406;28;20219;-58
2022/11/27 09:09:44;;;;;;;0.88;0.88;;;;;;;6.25;56.39;96082.59;4938873;28;20208;-61
2022/11/27 09:12:11;;;;;;;2.50;2.30;;;;;;;6.49;56.23;96074.19;4952353;28;20199;-61
2022/11/27 09:14:38;;;;;;;1.55;1.45;;;;;;;6.38;56.12;96074.78;4938638;28;20200;-57
2022/11/27 09:17:06;;;;;;;5.07;4.03;;;;;;;6.10;58.54;96076.75;4947793;28;20210;-67
2022/11/27 09:19:32;;;;;;;15.25;5.53;;;;;;;6.58;57.12;96080.78;4947433;28;20264;-65
2022/11/27 09:21:59;;;;;;;5.30;4.20;;;;;;;6.72;56.50;96077.16;4942598;28;20318;-63
2022/11/27 09:24:26;;;;;;;1.10;1.10;;;;;;;7.16;55.58;96069.47;4938412;28;20196;-65
2022/11/27 09:26:53;;;;;;;1.13;1.10;;;;;;;6.95;55.95;96067.09;4951582;28;20200;-62
2022/11/27 09:29:20;;;;;;;4.10;3.22;;;;;;;6.99;55.44;96068.28;4952319;28;20200;-60
2022/11/27 09:31:47;;;;;;;1.40;1.23;;;;;;;6.99;55.36;96065.69;4949514;28;20290;-62
2022/11/27 09:34:14;;;;;;;4.70;2.15;;;;;;;7.27;54.81;96054.16;4938975;28;20370;-66
2022/11/27 09:36:40;;;;;;;1.70;1.60;;;;;;;7.25;55.10;96051.78;4935695;28;20651;-61
2022/11/27 09:39:07;;;;;;;1.27;1.27;;;;;;;7.34;56.18;96054.94;4935464;28;20240;-65
2022/11/27 09:41:57;;;;;;;3.28;3.00;;;;;;;7.41;56.86;96056.50;4934378;28;20192;-63
2022/11/27 09:44:29;;;;;;;2.08;1.95;;;;;;;7.80;54.56;96052.91;4934206;28;20205;-61
2022/11/27 09:47:36;;;;;;;1.85;1.75;;;;;;;7.82;54.17;96043.06;4935324;28;20235;-61
2022/11/27 09:50:17;;;;;;;2.22;2.08;;;;;;;7.72;54.87;96042.75;4936401;29;20216;-61
2022/11/27 09:52:52;;;;;;;1.60;1.52;;;;;;;7.98;53.96;96042.56;4937660;28;20291;-61
2022/11/27 09:55:47;;;;;;;6.68;2.70;;;;;;;7.74;53.91;96038.09;4932598;29;20676;-60
2022/11/27 09:58:19;;;;;;;2.40;2.13;;;;;;;7.52;55.25;96026.41;4936403;28;20201;-61
2022/11/27 10:00:46;;;;;;;3.33;2.35;;;;;;;7.82;54.78;96037.84;4933036;29;20208;-61
2022/11/27 10:03:24;;;;;;;4.55;2.90;;;;;;;7.40;55.26;96015.81;4934416;28;20228;-60
2022/11/27 10:06:25;;;;;;;2.25;2.13;;;;;;;7.76;54.83;96023.03;4932418;29;20275;-61
2022/11/27 10:09:26;;;;;;;0.80;0.80;;;;;;;7.62;54.18;96011.09;4976737;28;20291;-60
2022/11/27 10:12:02;;;;;;;0.68;0.68;;;;;;;7.83;53.95;96013.34;4935110;28;20258;-62
2022/11/27 10:15:03;;;;;;;4.22;2.67;;;;;;;8.02;53.68;96007.19;4938965;28;20200;-61
2022/11/27 10:17:51;;;;;;;2.13;1.48;;;;;;;8.15;54.08;96004.50;4939475;28;20196;-63
2022/11/27 10:20:31;;;;;;;2.83;2.25;;;;;;;8.23;53.49;96005.03;4932426;29;20223;-61
2022/11/27 10:23:12;;;;;;;1.98;1.88;;;;;;;8.40;53.13;95999.28;4942478;28;20245;-61
2022/11/27 10:25:57;;;;;;;0.30;0.30;;;;;;;8.11;53.53;95996.28;4941249;28;20695;-62
2022/11/27 10:28:44;;;;;;;3.03;2.80;;;;;;;8.71;52.42;95986.94;4941913;28;20360;-61
2022/11/27 10:31:18;;;;;;;1.50;1.40;;;;;;;8.66;52.60;95980.75;4931992;29;20200;-62
2022/11/27 10:33:52;;;;;;;7.72;3.53;;;;;;;8.58;52.91;95976.59;4948658;28;20187;-62
2022/11/27 10:36:43;;;;;;;0.50;0.50;;;;;;;8.16;53.34;95977.38;4951679;28;20207;-62
2022/11/27 10:39:35;;;;;;;6.20;4.55;;;;;;;8.46;53.61;95967.09;4943422;28;20231;-60
2022/11/27 10:42:09;;;;;;;2.27;2.07;;;;;;;8.56;53.43;95965.56;4952291;28;20723;-61
2022/11/27 10:44:51;;;;;;;2.37;2.17;;;;;;;8.79;53.45;95957.91;4940947;28;20452;-61
2022/11/27 10:47:21;;;;;;;2.27;2.17;;;;;;;8.46;52.24;95967.91;4946114;28;20478;-62
2022/11/27 10:49:48;;;;;;;1.63;1.52;;;;;;;8.51;53.00;95965.44;4952152;28;21161;-64
2022/11/27 10:52:18;;;;;;;1.60;1.35;;;;;;;8.56;53.00;95962.97;4938739;28;20196;-62
2022/11/27 10:54:55;;;;;;;0.10;0.10;;;;;;;8.64;52.89;95957.47;4954904;28;20270;-63
2022/11/27 10:57:45;;;;;;;2.03;1.83;;;;;;;8.80;52.35;95948.22;4943913;28;20608;-61
2022/11/27 11:00:17;;;;;;;2.27;2.07;;;;;;;8.65;52.94;95951.22;4945450;28;20447;-61
2022/11/27 11:02:45;;;;;;;0.63;0.63;;;;;;;8.63;53.59;95940.16;4951725;28;20496;-62
2022/11/27 11:05:22;;;;;;;3.53;2.73;;;;;;;8.72;54.94;95941.47;4935747;29;20432;-60
2022/11/27 11:08:19;;;;;;;0.60;0.60;;;;;;;9.13;52.51;95943.41;4948639;28;20953;-62
2022/11/27 11:10:58;;;;;;;0.70;0.70;;;;;;;8.62;52.69;95946.44;4948273;28;20294;-63
2022/11/27 11:13:30;;;;;;;4.20;3.30;;;;;;;8.96;52.55;95943.22;4940669;28;20448;-61
2022/11/27 11:15:59;;;;;;;2.57;2.33;;;;;;;8.84;52.32;95941.56;4935147;29;20452;-61
2022/11/27 11:18:29;;;;;;;1.70;1.60;;;;;;;8.80;52.77;95937.78;4946781;28;20457;-61
2022/11/27 11:20:59;;;;;;;0.63;0.63;;;;;;;8.90;53.26;95927.63;4954573;28;20461;-62
2022/11/27 11:23:32;;;;;;;2.30;2.07;;;;;;;9.02;52.32;95915.41;4947103;28;20491;-63
2022/11/27 11:26:04;;;;;;;4.50;2.78;;;;;;;8.95;52.84;95915.50;4942637;28;20905;-63
2022/11/27 11:28:34;;;;;;;5.00;2.85;;;;;;;9.19;52.07;95916.38;4948952;28;20303;-64
2022/11/27 11:31:08;;;;;;;0.63;0.63;;;;;;;8.92;52.14;95921.13;4935134;29;20295;-64
2022/11/27 11:33:47;;;;;;;2.58;2.38;;;;;;;8.50;51.42;95918.63;4952799;28;20439;-63
2022/11/27 11:36:14;;;;;;;0.20;0.20;;;;;;;8.46;51.29;95909.63;4953933;28;20223;-62
2022/11/27 11:38:45;;;;;;;2.85;2.63;;;;;;;8.27;52.11;95914.03;4953969;28;20880;-63
2022/11/27 11:41:16;;;;;;;3.47;2.83;;;;;;;8.38;51.92;95913.31;4953964;28;20739;-64
2022/11/27 11:44:00;;;;;;;2.10;1.97;;;;;;;8.48;50.99;95902.38;4944521;28;20494;-64
2022/11/27 11:46:32;;;;;;;1.02;1.02;;;;;;;8.56;51.99;95900.25;4934745;29;20510;-62
2022/11/27 11:49:06;;;;;;;1.30;1.20;;;;;;;8.85;50.67;95899.53;4943754;28;20212;-61
2022/11/27 11:51:36;;;;;;;0.93;0.93;;;;;;;8.91;50.49;95898.66;4936210;28;20205;-62
2022/11/27 11:54:25;;;;;;;2.47;0.93;;;;;;;9.03;50.51;95902.09;4947965;28;20266;-61
2022/11/27 11:56:58;;;;;;;0.45;0.45;;;;;;;8.88;50.34;95899.09;4946675;29;20214;-61
2022/11/27 11:59:44;;;;;;;2.38;1.92;;;;;;;8.71;50.50;95897.28;4953389;28;20735;-61
2022/11/27 12:02:25;;;;;;;7.30;2.83;;;;;;;8.58;50.19;95893.00;4948859;29;20615;-60
2022/11/27 12:05:25;;;;;;;7.25;2.95;;;;;;;8.65;50.63;95888.50;4940589;29;20444;-62